sensor_id;sensor_type;location;lat;lon;timestamp;temperature;humidity
4985;DHT22;2509;49.902;8.600;2023-04-30T00:00:38;12.60;99.90
4985;DHT22;2509;49.902;8.600;2023-04-30T00:03:41;12.60;99.90
4985;DHT22;2509;49.902;8.600;2023-04-30T00:06:43;12.60;99.90
4985;DHT22;2509;49.902;8.600;2023-04-30T00:09:45;12.60;99.90
4985;DHT22;2509;49.902;8.600;2023-04-30T00:12:46;12.60;99.90
4985;DHT22;2509;49.902;8.600;2023-04-30T00:15:48;12.60;99.90
4985;DHT22;2509;49.902;8.600;2023-04-30T00:18:52;12.60;99.90
4985;DHT22;2509;49.902;8.600;2023-04-30T00:21:53;12.60;99.90
4985;DHT22;2509;49.902;8.600;2023-04-30T00:24:55;12.50;99.90
4985;DHT22;2509;49.902;8.600;2023-04-30T00:27:57;12.60;99.90
4985;DHT22;2509;49.902;8.600;2023-04-30T00:30:58;12.60;99.90
4985;DHT22;2509;49.902;8.600;2023-04-30T00:34:01;12.60;99.90
4985;DHT22;2509;49.902;8.600;2023-04-30T00:37:03;12.60;99.90
4985;DHT22;2509;49.902;8.600;2023-04-30T00:40:06;12.60;99.90
4985;DHT22;2509;49.902;8.600;2023-04-30T00:43:08;12.60;99.90
4985;DHT22;2509;49.902;8.600;2023-04-30T00:46:10;12.60;99.90
4985;DHT22;2509;49.902;8.600;2023-04-30T00:49:13;12.60;99.90
4985;DHT22;2509;49.902;8.600;2023-04-30T00:52:15;12.60;99.90
4985;DHT22;2509;49.902;8.600;2023-04-30T00:55:17;12.50;99.90
4985;DHT22;2509;49.902;8.600;2023-04-30T00:58:19;12.50;99.90
4985;DHT22;2509;49.902;8.600;2023-04-30T01:01:21;12.50;99.90
4985;DHT22;2509;49.902;8.600;2023-04-30T01:04:24;12.50;99.90
4985;DHT22;2509;49.902;8.600;2023-04-30T01:07:26;12.50;99.90
4985;DHT22;2509;49.902;8.600;2023-04-30T01:10:39;12.50;99.90
4985;DHT22;2509;49.902;8.600;2023-04-30T01:13:54;12.50;99.90
4985;DHT22;2509;49.902;8.600;2023-04-30T01:17:02;12.50;99.90
4985;DHT22;2509;49.902;8.600;2023-04-30T01:20:09;12.50;99.90
4985;DHT22;2509;49.902;8.600;2023-04-30T01:23:21;12.50;99.90
4985;DHT22;2509;49.902;8.600;2023-04-30T01:26:39;12.50;99.90
4985;DHT22;2509;49.902;8.600;2023-04-30T01:29:47;12.50;99.90
4985;DHT22;2509;49.902;8.600;2023-04-30T01:32:50;12.50;99.90
4985;DHT22;2509;49.902;8.600;2023-04-30T01:36:25;12.50;99.90
4985;DHT22;2509;49.902;8.600;2023-04-30T01:42:59;12.50;99.90
4985;DHT22;2509;49.902;8.600;2023-04-30T01:46:09;12.40;99.90
4985;DHT22;2509;49.902;8.600;2023-04-30T01:49:20;12.40;99.90
4985;DHT22;2509;49.902;8.600;2023-04-30T01:52:31;12.40;99.90
4985;DHT22;2509;49.902;8.600;2023-04-30T01:55:41;12.40;99.90
4985;DHT22;2509;49.902;8.600;2023-04-30T01:58:45;12.40;99.90
4985;DHT22;2509;49.902;8.600;2023-04-30T02:01:49;12.40;99.90
4985;DHT22;2509;49.902;8.600;2023-04-30T02:04:51;12.40;99.90
4985;DHT22;2509;49.902;8.600;2023-04-30T02:07:52;12.40;99.90
4985;DHT22;2509;49.902;8.600;2023-04-30T02:10:54;12.30;99.90
4985;DHT22;2509;49.902;8.600;2023-04-30T02:13:56;12.30;99.90
4985;DHT22;2509;49.902;8.600;2023-04-30T02:16:59;12.30;99.90
4985;DHT22;2509;49.902;8.600;2023-04-30T02:20:01;12.20;99.90
4985;DHT22;2509;49.902;8.600;2023-04-30T02:23:03;12.20;99.90
4985;DHT22;2509;49.902;8.600;2023-04-30T02:26:04;12.10;99.90
4985;DHT22;2509;49.902;8.600;2023-04-30T02:29:06;12.10;99.90
4985;DHT22;2509;49.902;8.600;2023-04-30T02:32:09;12.10;99.90
4985;DHT22;2509;49.902;8.600;2023-04-30T02:35:11;12.10;99.90
4985;DHT22;2509;49.902;8.600;2023-04-30T02:38:13;12.10;99.90
4985;DHT22;2509;49.902;8.600;2023-04-30T02:41:14;12.00;99.90
4985;DHT22;2509;49.902;8.600;2023-04-30T02:44:16;12.10;99.90
4985;DHT22;2509;49.902;8.600;2023-04-30T02:47:19;12.00;99.90
4985;DHT22;2509;49.902;8.600;2023-04-30T02:50:21;12.00;99.90
4985;DHT22;2509;49.902;8.600;2023-04-30T02:53:23;12.00;99.90
4985;DHT22;2509;49.902;8.600;2023-04-30T02:56:24;12.00;99.90
4985;DHT22;2509;49.902;8.600;2023-04-30T02:59:26;11.90;99.90
4985;DHT22;2509;49.902;8.600;2023-04-30T03:02:29;11.90;99.90
4985;DHT22;2509;49.902;8.600;2023-04-30T03:05:31;11.80;99.90
4985;DHT22;2509;49.902;8.600;2023-04-30T03:08:33;11.80;99.90
4985;DHT22;2509;49.902;8.600;2023-04-30T03:11:34;11.80;99.90
4985;DHT22;2509;49.902;8.600;2023-04-30T03:14:37;11.80;99.90
4985;DHT22;2509;49.902;8.600;2023-04-30T03:17:40;11.80;99.90
4985;DHT22;2509;49.902;8.600;2023-04-30T03:20:42;11.90;99.90
4985;DHT22;2509;49.902;8.600;2023-04-30T03:23:43;11.80;99.90
4985;DHT22;2509;49.902;8.600;2023-04-30T03:26:45;11.80;99.90
4985;DHT22;2509;49.902;8.600;2023-04-30T03:29:47;11.80;99.90
4985;DHT22;2509;49.902;8.600;2023-04-30T03:32:50;11.70;99.90
4985;DHT22;2509;49.902;8.600;2023-04-30T03:35:52;11.70;99.90
4985;DHT22;2509;49.902;8.600;2023-04-30T03:38:54;11.70;99.90
4985;DHT22;2509;49.902;8.600;2023-04-30T03:41:55;11.70;99.90
4985;DHT22;2509;49.902;8.600;2023-04-30T03:44:57;11.60;99.90
4985;DHT22;2509;49.902;8.600;2023-04-30T03:48:00;11.60;99.90
4985;DHT22;2509;49.902;8.600;2023-04-30T03:51:02;11.60;99.90
4985;DHT22;2509;49.902;8.600;2023-04-30T03:54:04;11.60;99.90
4985;DHT22;2509;49.902;8.600;2023-04-30T03:57:05;11.50;99.90
4985;DHT22;2509;49.902;8.600;2023-04-30T04:00:10;11.50;99.90
4985;DHT22;2509;49.902;8.600;2023-04-30T04:03:14;11.40;99.90
4985;DHT22;2509;49.902;8.600;2023-04-30T04:06:16;11.40;99.90
4985;DHT22;2509;49.902;8.600;2023-04-30T04:09:17;11.40;99.90
4985;DHT22;2509;49.902;8.600;2023-04-30T04:12:20;11.40;99.90
4985;DHT22;2509;49.902;8.600;2023-04-30T04:15:21;11.40;99.90
4985;DHT22;2509;49.902;8.600;2023-04-30T04:18:25;11.40;99.90
4985;DHT22;2509;49.902;8.600;2023-04-30T04:21:27;11.40;99.90
4985;DHT22;2509;49.902;8.600;2023-04-30T04:24:29;11.40;99.90
4985;DHT22;2509;49.902;8.600;2023-04-30T04:27:31;11.40;99.90
4985;DHT22;2509;49.902;8.600;2023-04-30T04:30:33;11.40;99.90
4985;DHT22;2509;49.902;8.600;2023-04-30T04:33:37;11.40;99.90
4985;DHT22;2509;49.902;8.600;2023-04-30T04:36:39;11.40;99.90
4985;DHT22;2509;49.902;8.600;2023-04-30T04:39:41;11.40;99.90
4985;DHT22;2509;49.902;8.600;2023-04-30T04:42:44;11.40;99.90
4985;DHT22;2509;49.902;8.600;2023-04-30T04:45:46;11.40;99.90
4985;DHT22;2509;49.902;8.600;2023-04-30T04:48:49;11.50;99.90
4985;DHT22;2509;49.902;8.600;2023-04-30T04:51:51;11.50;99.90
4985;DHT22;2509;49.902;8.600;2023-04-30T04:54:53;11.50;99.90
4985;DHT22;2509;49.902;8.600;2023-04-30T04:57:55;11.40;99.90
4985;DHT22;2509;49.902;8.600;2023-04-30T05:00:56;11.40;99.90
4985;DHT22;2509;49.902;8.600;2023-04-30T05:04:00;11.40;99.90
4985;DHT22;2509;49.902;8.600;2023-04-30T05:07:02;11.50;99.90
4985;DHT22;2509;49.902;8.600;2023-04-30T05:10:05;11.50;99.90
4985;DHT22;2509;49.902;8.600;2023-04-30T05:13:07;11.40;99.90
4985;DHT22;2509;49.902;8.600;2023-04-30T05:16:08;11.40;99.90
4985;DHT22;2509;49.902;8.600;2023-04-30T05:19:11;11.50;99.90
4985;DHT22;2509;49.902;8.600;2023-04-30T05:22:13;11.50;99.90
4985;DHT22;2509;49.902;8.600;2023-04-30T05:25:15;11.50;99.90
4985;DHT22;2509;49.902;8.600;2023-04-30T05:28:17;11.50;99.90
4985;DHT22;2509;49.902;8.600;2023-04-30T05:31:18;11.50;99.90
4985;DHT22;2509;49.902;8.600;2023-04-30T05:34:21;11.50;99.90
4985;DHT22;2509;49.902;8.600;2023-04-30T05:37:23;11.60;99.90
4985;DHT22;2509;49.902;8.600;2023-04-30T05:40:25;11.70;99.90
4985;DHT22;2509;49.902;8.600;2023-04-30T05:43:27;11.70;99.90
4985;DHT22;2509;49.902;8.600;2023-04-30T05:46:28;11.80;99.90
4985;DHT22;2509;49.902;8.600;2023-04-30T05:49:31;11.80;99.90
4985;DHT22;2509;49.902;8.600;2023-04-30T05:52:33;11.80;99.90
4985;DHT22;2509;49.902;8.600;2023-04-30T05:55:35;11.80;99.90
4985;DHT22;2509;49.902;8.600;2023-04-30T05:58:38;11.90;99.90
4985;DHT22;2509;49.902;8.600;2023-04-30T06:01:40;11.90;99.90
4985;DHT22;2509;49.902;8.600;2023-04-30T06:04:43;11.80;99.90
4985;DHT22;2509;49.902;8.600;2023-04-30T06:07:45;11.80;99.90
4985;DHT22;2509;49.902;8.600;2023-04-30T06:10:47;11.90;99.90
4985;DHT22;2509;49.902;8.600;2023-04-30T06:13:49;12.10;99.90
4985;DHT22;2509;49.902;8.600;2023-04-30T06:16:50;12.20;99.90
4985;DHT22;2509;49.902;8.600;2023-04-30T06:19:54;12.30;99.90
4985;DHT22;2509;49.902;8.600;2023-04-30T06:22:58;12.40;99.90
4985;DHT22;2509;49.902;8.600;2023-04-30T06:26:02;12.50;99.90
4985;DHT22;2509;49.902;8.600;2023-04-30T06:29:03;12.50;99.90
4985;DHT22;2509;49.902;8.600;2023-04-30T06:32:05;12.50;99.90
4985;DHT22;2509;49.902;8.600;2023-04-30T06:35:09;12.60;99.90
4985;DHT22;2509;49.902;8.600;2023-04-30T06:38:11;12.70;99.90
4985;DHT22;2509;49.902;8.600;2023-04-30T06:41:13;12.80;99.90
4985;DHT22;2509;49.902;8.600;2023-04-30T06:44:15;13.00;99.90
4985;DHT22;2509;49.902;8.600;2023-04-30T06:47:17;13.10;99.90
4985;DHT22;2509;49.902;8.600;2023-04-30T06:50:20;13.30;99.90
4985;DHT22;2509;49.902;8.600;2023-04-30T06:53:22;13.40;99.90
4985;DHT22;2509;49.902;8.600;2023-04-30T06:56:24;13.60;99.90
4985;DHT22;2509;49.902;8.600;2023-04-30T06:59:26;13.80;99.90
4985;DHT22;2509;49.902;8.600;2023-04-30T07:02:27;13.90;99.90
4985;DHT22;2509;49.902;8.600;2023-04-30T07:05:31;14.00;99.90
4985;DHT22;2509;49.902;8.600;2023-04-30T07:08:33;14.20;99.90
4985;DHT22;2509;49.902;8.600;2023-04-30T07:11:34;14.40;99.90
4985;DHT22;2509;49.902;8.600;2023-04-30T07:14:36;14.50;99.90
4985;DHT22;2509;49.902;8.600;2023-04-30T07:17:38;14.70;99.90
4985;DHT22;2509;49.902;8.600;2023-04-30T07:20:42;14.80;99.90
4985;DHT22;2509;49.902;8.600;2023-04-30T07:23:44;14.90;99.90
4985;DHT22;2509;49.902;8.600;2023-04-30T07:26:46;14.90;99.90
4985;DHT22;2509;49.902;8.600;2023-04-30T07:29:47;15.00;99.90
4985;DHT22;2509;49.902;8.600;2023-04-30T07:32:49;15.10;99.90
4985;DHT22;2509;49.902;8.600;2023-04-30T07:35:52;15.30;99.90
4985;DHT22;2509;49.902;8.600;2023-04-30T07:38:56;15.30;99.90
4985;DHT22;2509;49.902;8.600;2023-04-30T07:41:57;15.50;99.90
4985;DHT22;2509;49.902;8.600;2023-04-30T07:44:59;15.70;99.90
4985;DHT22;2509;49.902;8.600;2023-04-30T07:48:04;15.70;99.90
4985;DHT22;2509;49.902;8.600;2023-04-30T07:51:07;16.00;99.90
4985;DHT22;2509;49.902;8.600;2023-04-30T07:54:09;16.10;99.90
4985;DHT22;2509;49.902;8.600;2023-04-30T07:57:10;16.20;99.90
4985;DHT22;2509;49.902;8.600;2023-04-30T08:00:13;16.30;99.90
4985;DHT22;2509;49.902;8.600;2023-04-30T08:03:15;16.30;99.90
4985;DHT22;2509;49.902;8.600;2023-04-30T08:06:20;16.30;99.90
4985;DHT22;2509;49.902;8.600;2023-04-30T08:09:22;16.40;99.90
4985;DHT22;2509;49.902;8.600;2023-04-30T08:12:24;16.60;99.90
4985;DHT22;2509;49.902;8.600;2023-04-30T08:15:26;16.70;99.90
4985;DHT22;2509;49.902;8.600;2023-04-30T08:18:28;16.80;99.90
4985;DHT22;2509;49.902;8.600;2023-04-30T08:21:32;16.90;99.90
4985;DHT22;2509;49.902;8.600;2023-04-30T08:24:33;17.10;99.90
4985;DHT22;2509;49.902;8.600;2023-04-30T08:27:35;17.30;99.90
4985;DHT22;2509;49.902;8.600;2023-04-30T08:30:37;17.40;99.90
4985;DHT22;2509;49.902;8.600;2023-04-30T08:33:39;17.60;99.90
4985;DHT22;2509;49.902;8.600;2023-04-30T08:36:42;17.60;99.90
4985;DHT22;2509;49.902;8.600;2023-04-30T08:39:44;17.60;99.90
4985;DHT22;2509;49.902;8.600;2023-04-30T08:42:52;17.70;99.90
4985;DHT22;2509;49.902;8.600;2023-04-30T08:45:54;17.90;99.90
4985;DHT22;2509;49.902;8.600;2023-04-30T08:48:56;18.10;99.90
4985;DHT22;2509;49.902;8.600;2023-04-30T08:52:00;18.20;99.90
4985;DHT22;2509;49.902;8.600;2023-04-30T08:55:06;18.30;99.90
4985;DHT22;2509;49.902;8.600;2023-04-30T08:58:08;18.40;99.90
4985;DHT22;2509;49.902;8.600;2023-04-30T09:01:10;18.50;99.90
4985;DHT22;2509;49.902;8.600;2023-04-30T09:04:12;18.60;99.90
4985;DHT22;2509;49.902;8.600;2023-04-30T09:07:17;18.50;99.90
4985;DHT22;2509;49.902;8.600;2023-04-30T09:10:20;18.60;99.90
4985;DHT22;2509;49.902;8.600;2023-04-30T09:13:23;19.00;98.80
4985;DHT22;2509;49.902;8.600;2023-04-30T09:16:25;19.30;99.90
4985;DHT22;2509;49.902;8.600;2023-04-30T09:19:29;19.30;99.90
4985;DHT22;2509;49.902;8.600;2023-04-30T09:22:33;19.40;99.90
4985;DHT22;2509;49.902;8.600;2023-04-30T09:25:39;19.60;97.10
4985;DHT22;2509;49.902;8.600;2023-04-30T09:28:53;19.80;98.60
4985;DHT22;2509;49.902;8.600;2023-04-30T09:32:07;19.80;98.70
4985;DHT22;2509;49.902;8.600;2023-04-30T09:35:27;19.50;96.30
4985;DHT22;2509;49.902;8.600;2023-04-30T09:38:31;19.50;96.00
4985;DHT22;2509;49.902;8.600;2023-04-30T09:41:34;19.60;95.20
4985;DHT22;2509;49.902;8.600;2023-04-30T09:44:37;19.70;95.20
4985;DHT22;2509;49.902;8.600;2023-04-30T09:47:38;19.90;97.20
4985;DHT22;2509;49.902;8.600;2023-04-30T09:50:41;20.00;98.50
4985;DHT22;2509;49.902;8.600;2023-04-30T09:53:46;20.20;95.80
4985;DHT22;2509;49.902;8.600;2023-04-30T09:56:49;20.30;93.10
4985;DHT22;2509;49.902;8.600;2023-04-30T09:59:54;20.40;94.50
4985;DHT22;2509;49.902;8.600;2023-04-30T10:02:58;20.30;95.10
4985;DHT22;2509;49.902;8.600;2023-04-30T10:06:02;20.30;93.50
4985;DHT22;2509;49.902;8.600;2023-04-30T10:09:07;20.40;91.80
4985;DHT22;2509;49.902;8.600;2023-04-30T10:12:14;20.80;91.20
4985;DHT22;2509;49.902;8.600;2023-04-30T10:15:19;21.10;92.40
4985;DHT22;2509;49.902;8.600;2023-04-30T10:18:27;21.30;90.90
4985;DHT22;2509;49.902;8.600;2023-04-30T10:21:30;21.50;91.50
4985;DHT22;2509;49.902;8.600;2023-04-30T10:24:35;21.30;89.90
4985;DHT22;2509;49.902;8.600;2023-04-30T10:27:37;21.40;90.40
4985;DHT22;2509;49.902;8.600;2023-04-30T10:30:40;21.50;91.20
4985;DHT22;2509;49.902;8.600;2023-04-30T10:33:47;21.70;90.60
4985;DHT22;2509;49.902;8.600;2023-04-30T10:36:55;21.80;89.40
4985;DHT22;2509;49.902;8.600;2023-04-30T10:39:59;21.90;88.80
4985;DHT22;2509;49.902;8.600;2023-04-30T10:43:04;21.70;89.20
4985;DHT22;2509;49.902;8.600;2023-04-30T10:46:07;21.80;89.40
4985;DHT22;2509;49.902;8.600;2023-04-30T10:49:10;22.00;89.30
4985;DHT22;2509;49.902;8.600;2023-04-30T10:52:15;22.10;90.60
4985;DHT22;2509;49.902;8.600;2023-04-30T10:55:28;22.30;89.00
4985;DHT22;2509;49.902;8.600;2023-04-30T10:58:31;22.30;87.60
4985;DHT22;2509;49.902;8.600;2023-04-30T11:01:53;22.40;84.90
4985;DHT22;2509;49.902;8.600;2023-04-30T11:05:09;22.50;87.40
4985;DHT22;2509;49.902;8.600;2023-04-30T11:08:11;22.60;86.40
4985;DHT22;2509;49.902;8.600;2023-04-30T11:11:18;22.50;86.70
4985;DHT22;2509;49.902;8.600;2023-04-30T11:14:21;22.40;87.50
4985;DHT22;2509;49.902;8.600;2023-04-30T11:17:23;22.20;84.90
4985;DHT22;2509;49.902;8.600;2023-04-30T11:20:27;21.70;85.20
4985;DHT22;2509;49.902;8.600;2023-04-30T11:23:33;22.20;87.40
4985;DHT22;2509;49.902;8.600;2023-04-30T11:30:12;23.10;84.90
4985;DHT22;2509;49.902;8.600;2023-04-30T11:33:14;23.30;84.30
4985;DHT22;2509;49.902;8.600;2023-04-30T11:36:18;22.70;82.90
4985;DHT22;2509;49.902;8.600;2023-04-30T11:39:20;22.60;82.40
4985;DHT22;2509;49.902;8.600;2023-04-30T11:42:22;22.30;83.20
4985;DHT22;2509;49.902;8.600;2023-04-30T11:45:25;22.40;83.70
4985;DHT22;2509;49.902;8.600;2023-04-30T11:48:30;23.10;84.60
4985;DHT22;2509;49.902;8.600;2023-04-30T11:51:35;23.90;80.80
4985;DHT22;2509;49.902;8.600;2023-04-30T11:54:38;24.60;82.40
4985;DHT22;2509;49.902;8.600;2023-04-30T11:57:40;25.10;79.60
4985;DHT22;2509;49.902;8.600;2023-04-30T12:00:44;25.60;79.30
4985;DHT22;2509;49.902;8.600;2023-04-30T12:03:48;25.50;77.90
4985;DHT22;2509;49.902;8.600;2023-04-30T12:06:50;25.40;77.40
4985;DHT22;2509;49.902;8.600;2023-04-30T12:09:53;24.30;76.00
4985;DHT22;2509;49.902;8.600;2023-04-30T12:12:55;24.20;78.80
4985;DHT22;2509;49.902;8.600;2023-04-30T12:15:59;24.80;79.50
4985;DHT22;2509;49.902;8.600;2023-04-30T12:19:01;26.20;79.50
4985;DHT22;2509;49.902;8.600;2023-04-30T12:22:03;26.40;76.10
4985;DHT22;2509;49.902;8.600;2023-04-30T12:25:06;25.60;75.90
4985;DHT22;2509;49.902;8.600;2023-04-30T12:28:10;25.00;77.20
4985;DHT22;2509;49.902;8.600;2023-04-30T12:31:13;25.00;78.90
4985;DHT22;2509;49.902;8.600;2023-04-30T12:34:15;24.90;77.60
4985;DHT22;2509;49.902;8.600;2023-04-30T12:37:17;25.00;78.30
4985;DHT22;2509;49.902;8.600;2023-04-30T12:40:26;24.60;77.70
4985;DHT22;2509;49.902;8.600;2023-04-30T12:43:28;24.20;78.00
4985;DHT22;2509;49.902;8.600;2023-04-30T12:46:31;24.10;78.50
4985;DHT22;2509;49.902;8.600;2023-04-30T12:49:34;24.70;79.70
4985;DHT22;2509;49.902;8.600;2023-04-30T12:52:36;25.60;76.20
4985;DHT22;2509;49.902;8.600;2023-04-30T12:55:39;25.10;73.20
4985;DHT22;2509;49.902;8.600;2023-04-30T12:58:42;24.00;72.80
4985;DHT22;2509;49.902;8.600;2023-04-30T13:01:50;24.50;72.40
4985;DHT22;2509;49.902;8.600;2023-04-30T13:04:53;25.30;72.40
4985;DHT22;2509;49.902;8.600;2023-04-30T13:08:00;25.70;75.90
4985;DHT22;2509;49.902;8.600;2023-04-30T13:11:02;26.30;76.70
4985;DHT22;2509;49.902;8.600;2023-04-30T13:14:04;26.70;73.50
4985;DHT22;2509;49.902;8.600;2023-04-30T13:17:07;26.20;76.20
4985;DHT22;2509;49.902;8.600;2023-04-30T13:20:11;26.60;72.40
4985;DHT22;2509;49.902;8.600;2023-04-30T13:23:13;26.60;74.40
4985;DHT22;2509;49.902;8.600;2023-04-30T13:26:16;26.60;75.90
4985;DHT22;2509;49.902;8.600;2023-04-30T13:29:18;27.00;73.10
4985;DHT22;2509;49.902;8.600;2023-04-30T13:32:21;27.00;73.30
4985;DHT22;2509;49.902;8.600;2023-04-30T13:35:23;27.80;72.40
4985;DHT22;2509;49.902;8.600;2023-04-30T13:38:25;28.30;70.30
4985;DHT22;2509;49.902;8.600;2023-04-30T13:41:26;27.60;68.40
4985;DHT22;2509;49.902;8.600;2023-04-30T13:44:28;27.10;67.00
4985;DHT22;2509;49.902;8.600;2023-04-30T13:47:33;25.90;68.60
4985;DHT22;2509;49.902;8.600;2023-04-30T13:50:35;26.00;68.50
4985;DHT22;2509;49.902;8.600;2023-04-30T13:53:37;26.90;70.10
4985;DHT22;2509;49.902;8.600;2023-04-30T13:56:39;27.40;68.30
4985;DHT22;2509;49.902;8.600;2023-04-30T13:59:41;27.60;68.00
4985;DHT22;2509;49.902;8.600;2023-04-30T14:02:44;27.30;66.50
4985;DHT22;2509;49.902;8.600;2023-04-30T14:05:46;26.30;67.50
4985;DHT22;2509;49.902;8.600;2023-04-30T14:08:48;26.20;68.40
4985;DHT22;2509;49.902;8.600;2023-04-30T14:11:50;26.40;67.30
4985;DHT22;2509;49.902;8.600;2023-04-30T14:14:52;26.70;69.40
4985;DHT22;2509;49.902;8.600;2023-04-30T14:17:55;26.90;66.70
4985;DHT22;2509;49.902;8.600;2023-04-30T14:20:56;26.90;67.10
4985;DHT22;2509;49.902;8.600;2023-04-30T14:23:58;26.50;69.10
4985;DHT22;2509;49.902;8.600;2023-04-30T14:27:00;26.30;68.70
4985;DHT22;2509;49.902;8.600;2023-04-30T14:30:03;26.30;69.60
4985;DHT22;2509;49.902;8.600;2023-04-30T14:33:07;26.40;70.60
4985;DHT22;2509;49.902;8.600;2023-04-30T14:36:10;25.80;70.40
4985;DHT22;2509;49.902;8.600;2023-04-30T14:39:12;26.50;70.70
4985;DHT22;2509;49.902;8.600;2023-04-30T14:42:14;26.80;71.40
4985;DHT22;2509;49.902;8.600;2023-04-30T14:45:16;26.00;70.70
4985;DHT22;2509;49.902;8.600;2023-04-30T14:48:19;24.80;70.90
4985;DHT22;2509;49.902;8.600;2023-04-30T14:51:20;24.20;74.20
4985;DHT22;2509;49.902;8.600;2023-04-30T14:54:22;24.00;73.80
4985;DHT22;2509;49.902;8.600;2023-04-30T14:57:24;24.20;75.50
4985;DHT22;2509;49.902;8.600;2023-04-30T15:00:26;25.60;74.00
4985;DHT22;2509;49.902;8.600;2023-04-30T15:03:29;25.40;74.20
4985;DHT22;2509;49.902;8.600;2023-04-30T15:06:31;24.70;72.90
4985;DHT22;2509;49.902;8.600;2023-04-30T15:09:33;24.80;73.40
4985;DHT22;2509;49.902;8.600;2023-04-30T15:12:35;24.40;76.40
4985;DHT22;2509;49.902;8.600;2023-04-30T15:15:37;24.00;76.60
4985;DHT22;2509;49.902;8.600;2023-04-30T15:18:40;23.80;77.80
4985;DHT22;2509;49.902;8.600;2023-04-30T15:21:42;23.30;77.90
4985;DHT22;2509;49.902;8.600;2023-04-30T15:24:44;22.90;78.90
4985;DHT22;2509;49.902;8.600;2023-04-30T15:27:45;22.80;79.30
4985;DHT22;2509;49.902;8.600;2023-04-30T15:30:47;22.80;79.80
4985;DHT22;2509;49.902;8.600;2023-04-30T15:33:51;23.20;79.20
4985;DHT22;2509;49.902;8.600;2023-04-30T15:36:52;23.40;78.90
4985;DHT22;2509;49.902;8.600;2023-04-30T15:39:54;23.00;77.90
4985;DHT22;2509;49.902;8.600;2023-04-30T15:42:56;22.50;77.00
4985;DHT22;2509;49.902;8.600;2023-04-30T15:45:58;22.20;77.40
4985;DHT22;2509;49.902;8.600;2023-04-30T15:49:01;21.80;77.40
4985;DHT22;2509;49.902;8.600;2023-04-30T15:52:04;21.60;78.40
4985;DHT22;2509;49.902;8.600;2023-04-30T15:55:07;21.50;78.10
4985;DHT22;2509;49.902;8.600;2023-04-30T15:58:09;21.40;78.40
4985;DHT22;2509;49.902;8.600;2023-04-30T16:01:12;21.40;78.70
4985;DHT22;2509;49.902;8.600;2023-04-30T16:04:15;21.30;78.00
4985;DHT22;2509;49.902;8.600;2023-04-30T16:07:17;21.20;78.60
4985;DHT22;2509;49.902;8.600;2023-04-30T16:10:19;21.40;79.60
4985;DHT22;2509;49.902;8.600;2023-04-30T16:13:21;21.70;78.30
4985;DHT22;2509;49.902;8.600;2023-04-30T16:16:23;22.00;77.70
4985;DHT22;2509;49.902;8.600;2023-04-30T16:19:26;22.10;76.90
4985;DHT22;2509;49.902;8.600;2023-04-30T16:22:28;22.10;77.00
4985;DHT22;2509;49.902;8.600;2023-04-30T16:25:31;21.90;76.60
4985;DHT22;2509;49.902;8.600;2023-04-30T16:28:33;21.70;77.10
4985;DHT22;2509;49.902;8.600;2023-04-30T16:31:35;21.60;77.30
4985;DHT22;2509;49.902;8.600;2023-04-30T16:34:39;21.30;77.00
4985;DHT22;2509;49.902;8.600;2023-04-30T16:37:41;21.20;78.50
4985;DHT22;2509;49.902;8.600;2023-04-30T16:40:42;21.20;79.50
4985;DHT22;2509;49.902;8.600;2023-04-30T16:43:44;21.20;80.60
4985;DHT22;2509;49.902;8.600;2023-04-30T16:46:46;21.10;81.50
4985;DHT22;2509;49.902;8.600;2023-04-30T16:49:50;21.00;80.60
4985;DHT22;2509;49.902;8.600;2023-04-30T16:52:52;20.90;81.40
4985;DHT22;2509;49.902;8.600;2023-04-30T16:55:54;20.90;81.20
4985;DHT22;2509;49.902;8.600;2023-04-30T16:58:56;20.70;81.20
4985;DHT22;2509;49.902;8.600;2023-04-30T17:01:58;20.60;81.20
4985;DHT22;2509;49.902;8.600;2023-04-30T17:05:03;20.60;81.50
4985;DHT22;2509;49.902;8.600;2023-04-30T17:08:05;20.60;82.10
4985;DHT22;2509;49.902;8.600;2023-04-30T17:11:08;20.60;82.70
4985;DHT22;2509;49.902;8.600;2023-04-30T17:14:09;20.50;83.10
4985;DHT22;2509;49.902;8.600;2023-04-30T17:17:11;20.40;84.30
4985;DHT22;2509;49.902;8.600;2023-04-30T17:20:14;20.20;84.70
4985;DHT22;2509;49.902;8.600;2023-04-30T17:23:16;20.00;85.00
4985;DHT22;2509;49.902;8.600;2023-04-30T17:26:18;20.00;85.40
4985;DHT22;2509;49.902;8.600;2023-04-30T17:29:20;19.90;85.90
4985;DHT22;2509;49.902;8.600;2023-04-30T17:32:23;19.90;86.60
4985;DHT22;2509;49.902;8.600;2023-04-30T17:35:27;19.90;87.10
4985;DHT22;2509;49.902;8.600;2023-04-30T17:38:29;19.80;87.70
4985;DHT22;2509;49.902;8.600;2023-04-30T17:41:31;19.70;88.20
4985;DHT22;2509;49.902;8.600;2023-04-30T17:44:33;19.70;88.40
4985;DHT22;2509;49.902;8.600;2023-04-30T17:47:35;19.60;88.00
4985;DHT22;2509;49.902;8.600;2023-04-30T17:50:38;19.40;88.70
4985;DHT22;2509;49.902;8.600;2023-04-30T17:53:40;19.40;89.20
4985;DHT22;2509;49.902;8.600;2023-04-30T17:56:42;19.30;89.90
4985;DHT22;2509;49.902;8.600;2023-04-30T17:59:44;19.20;89.70
4985;DHT22;2509;49.902;8.600;2023-04-30T18:02:46;19.10;89.40
4985;DHT22;2509;49.902;8.600;2023-04-30T18:05:49;19.00;89.70
4985;DHT22;2509;49.902;8.600;2023-04-30T18:08:51;18.90;89.40
4985;DHT22;2509;49.902;8.600;2023-04-30T18:11:53;18.80;89.40
4985;DHT22;2509;49.902;8.600;2023-04-30T18:14:55;18.60;89.70
4985;DHT22;2509;49.902;8.600;2023-04-30T18:17:57;18.60;90.50
4985;DHT22;2509;49.902;8.600;2023-04-30T18:21:01;18.50;90.50
4985;DHT22;2509;49.902;8.600;2023-04-30T18:24:03;18.50;90.70
4985;DHT22;2509;49.902;8.600;2023-04-30T18:27:05;18.40;91.40
4985;DHT22;2509;49.902;8.600;2023-04-30T18:30:08;18.30;91.50
4985;DHT22;2509;49.902;8.600;2023-04-30T18:33:10;18.20;91.60
4985;DHT22;2509;49.902;8.600;2023-04-30T18:36:14;18.20;92.30
4985;DHT22;2509;49.902;8.600;2023-04-30T18:39:21;18.10;92.10
4985;DHT22;2509;49.902;8.600;2023-04-30T18:42:29;18.00;92.20
4985;DHT22;2509;49.902;8.600;2023-04-30T18:45:32;18.00;92.70
4985;DHT22;2509;49.902;8.600;2023-04-30T18:48:38;17.90;92.80
4985;DHT22;2509;49.902;8.600;2023-04-30T18:51:44;17.80;93.40
4985;DHT22;2509;49.902;8.600;2023-04-30T18:54:55;17.70;93.50
4985;DHT22;2509;49.902;8.600;2023-04-30T18:58:12;17.60;93.70
4985;DHT22;2509;49.902;8.600;2023-04-30T19:01:19;17.60;94.00
4985;DHT22;2509;49.902;8.600;2023-04-30T19:04:29;17.50;94.70
4985;DHT22;2509;49.902;8.600;2023-04-30T19:07:38;17.40;94.40
4985;DHT22;2509;49.902;8.600;2023-04-30T19:10:42;17.40;94.70
4985;DHT22;2509;49.902;8.600;2023-04-30T19:13:53;17.30;95.00
4985;DHT22;2509;49.902;8.600;2023-04-30T19:16:58;17.30;95.40
4985;DHT22;2509;49.902;8.600;2023-04-30T19:20:00;17.30;96.00
4985;DHT22;2509;49.902;8.600;2023-04-30T19:23:05;17.20;96.50
4985;DHT22;2509;49.902;8.600;2023-04-30T19:26:11;17.20;97.20
4985;DHT22;2509;49.902;8.600;2023-04-30T19:29:13;17.20;97.40
4985;DHT22;2509;49.902;8.600;2023-04-30T19:32:21;17.00;97.20
4985;DHT22;2509;49.902;8.600;2023-04-30T19:35:32;16.90;98.10
4985;DHT22;2509;49.902;8.600;2023-04-30T19:38:36;16.70;97.60
4985;DHT22;2509;49.902;8.600;2023-04-30T19:41:38;16.60;98.30
4985;DHT22;2509;49.902;8.600;2023-04-30T19:44:40;16.60;98.70
4985;DHT22;2509;49.902;8.600;2023-04-30T19:47:50;16.60;99.00
4985;DHT22;2509;49.902;8.600;2023-04-30T19:51:02;16.60;99.60
4985;DHT22;2509;49.902;8.600;2023-04-30T19:55:21;16.60;99.90
4985;DHT22;2509;49.902;8.600;2023-04-30T19:57:49;16.50;99.90
4985;DHT22;2509;49.902;8.600;2023-04-30T20:00:57;16.50;99.90
4985;DHT22;2509;49.902;8.600;2023-04-30T20:03:59;16.40;99.90